Time,TemperatureF,DewpointF,PressureIn,WindDirection,WindDirectionDegrees,WindSpeedMPH,WindSpeedGustMPH,Humidity,HourlyPrecipIn,Conditions,Clouds,dailyrainin,SoftwareType,DateUTC
2013-04-17 00:00:00,63.7,6.1,30.23,North,0,0.0,0.0,1,0.00,,,0.00,WUHU216HW,2013-04-17 04:00:00,
2013-04-17 00:01:00,63.7,6.1,30.23,North,0,0.0,0.0,1,0.00,,,0.00,WUHU216HW,2013-04-17 04:01:00,
2013-04-17 00:02:00,63.7,6.1,30.23,North,0,0.0,0.0,1,0.00,,,0.00,WUHU216HW,2013-04-17 04:02:00,
2013-04-17 00:07:00,63.7,6.1,30.23,North,0,0.0,0.0,1,0.00,,,0.00,WUHU216HW,2013-04-17 04:07:00,
2013-04-17 00:12:00,63.7,6.1,30.23,North,0,0.0,0.0,1,0.00,,,0.00,WUHU216HW,2013-04-17 04:12:00,
2013-04-17 00:17:00,63.7,6.1,30.23,North,0,0.0,0.0,1,0.00,,,0.00,WUHU216HW,2013-04-17 04:17:00,
2013-04-17 00:22:00,63.7,6.1,30.23,North,0,0.0,0.0,1,0.00,,,0.00,WUHU216HW,2013-04-17 04:22:00,
2013-04-17 00:28:00,63.7,6.1,30.23,North,0,0.0,0.0,1,0.00,,,0.00,WUHU216HW,2013-04-17 04:28:00,
2013-04-17 00:33:00,63.7,6.1,30.23,North,0,0.0,0.0,1,0.00,,,0.00,WUHU216HW,2013-04-17 04:33:00,
2013-04-17 00:38:00,63.7,6.1,30.24,North,0,0.0,0.0,1,0.00,,,0.00,WUHU216HW,2013-04-17 04:38:00,
2013-04-17 00:43:00,63.7,6.1,30.23,North,0,0.0,0.0,1,0.00,,,0.00,WUHU216HW,2013-04-17 04:43:00,
2013-04-17 00:48:00,63.7,6.1,30.23,North,0,0.0,0.0,1,0.00,,,0.00,WUHU216HW,2013-04-17 04:48:00,
2013-04-17 00:53:00,64.1,6.4,30.23,North,0,0.0,0.0,1,0.00,,,0.00,WUHU216HW,2013-04-17 04:53:00,
2013-04-17 00:58:00,64.1,6.4,30.23,North,0,0.0,0.0,1,0.00,,,0.00,WUHU216HW,2013-04-17 04:58:00,
2013-04-17 01:03:00,64.1,6.4,30.23,North,0,0.0,0.0,1,0.00,,,0.00,WUHU216HW,2013-04-17 05:03:00,
2013-04-17 01:08:00,63.9,6.3,30.23,North,0,0.0,0.0,1,0.00,,,0.00,WUHU216HW,2013-04-17 05:08:00,
2013-04-17 01:13:00,63.7,6.1,30.23,North,0,0.0,0.0,1,0.00,,,0.00,WUHU216HW,2013-04-17 05:13:00,
2013-04-17 01:18:00,63.7,6.1,30.23,North,0,0.0,0.0,1,0.00,,,0.00,WUHU216HW,2013-04-17 05:18:00,
2013-04-17 01:23:00,63.5,6.0,30.23,North,0,0.0,0.0,1,0.00,,,0.00,WUHU216HW,2013-04-17 05:23:00,
2013-04-17 01:28:00,63.5,6.0,30.23,North,0,0.0,0.0,1,0.00,,,0.00,WUHU216HW,2013-04-17 05:28:00,
2013-04-17 01:33:00,63.5,6.0,30.23,North,0,0.0,0.0,1,0.00,,,0.00,WUHU216HW,2013-04-17 05:33:00,
2013-04-17 01:38:00,63.5,6.0,30.23,North,0,0.0,0.0,1,0.00,,,0.00,WUHU216HW,2013-04-17 05:38:00,
2013-04-17 01:44:00,63.7,6.1,30.22,North,0,0.0,0.0,1,0.00,,,0.00,WUHU216HW,2013-04-17 05:44:00,
2013-04-17 01:49:00,63.7,6.1,30.22,North,0,0.0,0.0,1,0.00,,,0.00,WUHU216HW,2013-04-17 05:49:00,
2013-04-17 01:54:00,63.5,6.0,30.22,North,0,0.0,0.0,1,0.00,,,0.00,WUHU216HW,2013-04-17 05:54:00,
2013-04-17 01:59:00,63.5,6.0,30.22,North,0,0.0,0.0,1,0.00,,,0.00,WUHU216HW,2013-04-17 05:59:00,
2013-04-17 02:04:00,63.5,6.0,30.22,North,0,0.0,0.0,1,0.00,,,0.00,WUHU216HW,2013-04-17 06:04:00,
2013-04-17 02:09:00,63.4,6.0,30.22,North,0,0.0,0.0,1,0.00,,,0.00,WUHU216HW,2013-04-17 06:09:00,
2013-04-17 02:14:00,63.2,5.8,30.22,North,0,0.0,0.0,1,0.00,,,0.00,WUHU216HW,2013-04-17 06:14:00,
2013-04-17 02:19:00,63.2,5.8,30.22,North,0,0.0,0.0,1,0.00,,,0.00,WUHU216HW,2013-04-17 06:19:00,
2013-04-17 02:24:00,63.0,5.7,30.22,North,0,0.0,0.0,1,0.00,,,0.00,WUHU216HW,2013-04-17 06:24:00,
2013-04-17 02:29:00,63.0,5.7,30.22,North,0,0.0,0.0,1,0.00,,,0.00,WUHU216HW,2013-04-17 06:29:00,
2013-04-17 02:34:00,63.0,5.7,30.22,North,0,0.0,0.0,1,0.00,,,0.00,WUHU216HW,2013-04-17 06:34:00,
2013-04-17 02:39:00,63.0,5.7,30.22,North,0,0.0,0.0,1,0.00,,,0.00,WUHU216HW,2013-04-17 06:39:00,
2013-04-17 02:45:00,62.8,5.5,30.22,North,0,0.0,0.0,1,0.00,,,0.00,WUHU216HW,2013-04-17 06:45:00,
2013-04-17 02:50:00,62.8,5.5,30.22,North,0,0.0,0.0,1,0.00,,,0.00,WUHU216HW,2013-04-17 06:50:00,
2013-04-17 02:55:00,62.6,5.4,30.21,North,0,0.0,0.0,1,0.00,,,0.00,WUHU216HW,2013-04-17 06:55:00,
2013-04-17 03:00:00,62.6,5.4,30.22,North,0,0.0,0.0,1,0.00,,,0.00,WUHU216HW,2013-04-17 07:00:00,
2013-04-17 03:05:00,62.6,5.4,30.21,North,0,0.0,0.0,1,0.00,,,0.00,WUHU216HW,2013-04-17 07:05:00,
2013-04-17 03:10:00,62.5,5.2,30.21,North,0,0.0,0.0,1,0.00,,,0.00,WUHU216HW,2013-04-17 07:10:00,
2013-04-17 03:15:00,62.3,5.1,30.21,North,0,0.0,0.0,1,0.00,,,0.00,WUHU216HW,2013-04-17 07:15:00,
2013-04-17 03:20:00,62.3,5.1,30.21,North,0,0.0,0.0,1,0.00,,,0.00,WUHU216HW,2013-04-17 07:20:00,
2013-04-17 03:25:00,62.3,5.1,30.21,North,0,0.0,0.0,1,0.00,,,0.00,WUHU216HW,2013-04-17 07:25:00,
2013-04-17 03:30:00,62.3,5.1,30.21,North,0,0.0,0.0,1,0.00,,,0.00,WUHU216HW,2013-04-17 07:30:00,
2013-04-17 03:36:00,62.3,5.1,30.22,North,0,0.0,0.0,1,0.00,,,0.00,WUHU216HW,2013-04-17 07:36:00,
2013-04-17 03:41:00,62.1,5.0,30.21,North,0,0.0,0.0,1,0.00,,,0.00,WUHU216HW,2013-04-17 07:41:00,
2013-04-17 03:46:00,62.1,5.0,30.21,North,0,0.0,0.0,1,0.00,,,0.00,WUHU216HW,2013-04-17 07:46:00,
2013-04-17 03:51:00,61.9,4.9,30.21,North,0,0.0,0.0,1,0.00,,,0.00,WUHU216HW,2013-04-17 07:51:00,
2013-04-17 03:56:00,61.9,4.9,30.21,North,0,0.0,0.0,1,0.00,,,0.00,WUHU216HW,2013-04-17 07:56:00,
2013-04-17 04:01:00,61.9,4.9,30.21,North,0,0.0,0.0,1,0.00,,,0.00,WUHU216HW,2013-04-17 08:01:00,
2013-04-17 04:06:00,61.7,4.7,30.21,North,0,0.0,0.0,1,0.00,,,0.00,WUHU216HW,2013-04-17 08:06:00,
2013-04-17 04:11:00,61.7,4.7,30.20,North,0,0.0,0.0,1,0.00,,,0.00,WUHU216HW,2013-04-17 08:11:00,
2013-04-17 04:16:00,61.6,4.5,30.20,North,0,0.0,0.0,1,0.00,,,0.00,WUHU216HW,2013-04-17 08:16:00,
2013-04-17 04:21:00,61.7,4.7,30.20,North,0,0.0,0.0,1,0.00,,,0.00,WUHU216HW,2013-04-17 08:21:00,
2013-04-17 04:27:00,61.9,4.9,30.19,North,0,0.0,0.0,1,0.00,,,0.00,WUHU216HW,2013-04-17 08:27:00,
2013-04-17 04:32:00,61.9,4.9,30.20,North,0,0.0,0.0,1,0.00,,,0.00,WUHU216HW,2013-04-17 08:32:00,
2013-04-17 04:37:00,62.1,5.0,30.20,North,0,0.0,0.0,1,0.00,,,0.00,WUHU216HW,2013-04-17 08:37:00,
2013-04-17 04:42:00,62.1,5.0,30.20,North,0,0.0,0.0,1,0.00,,,0.00,WUHU216HW,2013-04-17 08:42:00,
2013-04-17 04:47:00,62.1,5.0,30.20,North,0,0.0,0.0,1,0.00,,,0.00,WUHU216HW,2013-04-17 08:47:00,
2013-04-17 04:52:00,61.9,4.9,30.20,North,0,0.0,0.0,1,0.00,,,0.00,WUHU216HW,2013-04-17 08:52:00,
2013-04-17 04:57:00,61.9,4.9,30.20,North,0,0.0,0.0,1,0.00,,,0.00,WUHU216HW,2013-04-17 08:57:00,
2013-04-17 05:02:00,61.9,4.9,30.20,North,0,0.0,0.0,1,0.00,,,0.00,WUHU216HW,2013-04-17 09:02:00,
2013-04-17 05:07:00,61.9,4.9,30.20,North,0,0.0,0.0,1,0.00,,,0.00,WUHU216HW,2013-04-17 09:07:00,
2013-04-17 05:12:00,61.9,4.9,30.20,North,0,0.0,0.0,1,0.00,,,0.00,WUHU216HW,2013-04-17 09:12:00,
2013-04-17 05:17:00,61.6,4.5,30.20,North,0,0.0,0.0,1,0.00,,,0.00,WUHU216HW,2013-04-17 09:17:00,
2013-04-17 05:22:00,61.4,4.4,30.20,North,0,0.0,0.0,1,0.00,,,0.00,WUHU216HW,2013-04-17 09:22:00,
2013-04-17 05:27:00,61.4,4.4,30.20,North,0,0.0,0.0,1,0.00,,,0.00,WUHU216HW,2013-04-17 09:27:00,
2013-04-17 05:32:00,61.4,4.4,30.20,North,0,0.0,0.0,1,0.00,,,0.00,WUHU216HW,2013-04-17 09:32:00,
2013-04-17 05:38:00,61.2,4.2,30.20,North,0,0.0,0.0,1,0.00,,,0.00,WUHU216HW,2013-04-17 09:38:00,
2013-04-17 05:43:00,61.2,4.2,30.20,North,0,0.0,0.0,1,0.00,,,0.00,WUHU216HW,2013-04-17 09:43:00,
2013-04-17 05:48:00,61.0,4.2,30.20,North,0,0.0,0.0,1,0.00,,,0.00,WUHU216HW,2013-04-17 09:48:00,
2013-04-17 05:53:00,61.0,4.2,30.20,North,0,0.0,0.0,1,0.00,,,0.00,WUHU216HW,2013-04-17 09:53:00,
2013-04-17 05:58:00,61.0,4.2,30.20,North,0,0.0,0.0,1,0.00,,,0.00,WUHU216HW,2013-04-17 09:58:00,
2013-04-17 06:03:00,61.2,4.2,30.21,North,0,0.0,0.0,1,0.00,,,0.00,WUHU216HW,2013-04-17 10:03:00,
2013-04-17 06:08:00,61.2,4.2,30.20,North,0,0.0,0.0,1,0.00,,,0.00,WUHU216HW,2013-04-17 10:08:00,
2013-04-17 06:13:00,61.2,4.2,30.20,North,0,0.0,0.0,1,0.00,,,0.00,WUHU216HW,2013-04-17 10:13:00,
2013-04-17 06:18:00,61.2,4.2,30.21,North,0,0.0,0.0,1,0.00,,,0.00,WUHU216HW,2013-04-17 10:18:00,
2013-04-17 06:23:00,61.2,4.2,30.21,North,0,0.0,0.0,1,0.00,,,0.00,WUHU216HW,2013-04-17 10:23:00,
2013-04-17 06:28:00,61.2,4.2,30.21,North,0,0.0,0.0,1,0.00,,,0.00,WUHU216HW,2013-04-17 10:28:00,
2013-04-17 06:33:00,61.2,4.2,30.21,North,0,0.0,0.0,1,0.00,,,0.00,WUHU216HW,2013-04-17 10:33:00,
2013-04-17 06:38:00,61.2,4.2,30.21,North,0,0.0,0.0,1,0.00,,,0.00,WUHU216HW,2013-04-17 10:38:00,
2013-04-17 06:43:00,61.2,4.2,30.22,North,0,0.0,0.0,1,0.00,,,0.00,WUHU216HW,2013-04-17 10:43:00,
2013-04-17 06:49:00,61.2,4.2,30.22,North,0,0.0,0.0,1,0.00,,,0.00,WUHU216HW,2013-04-17 10:49:00,
2013-04-17 06:54:00,61.2,4.2,30.22,North,0,0.0,0.0,1,0.00,,,0.00,WUHU216HW,2013-04-17 10:54:00,
2013-04-17 06:59:00,61.2,4.2,30.22,North,0,0.0,0.0,1,0.00,,,0.00,WUHU216HW,2013-04-17 10:59:00,
2013-04-17 07:04:00,61.2,4.2,30.23,North,0,0.0,0.0,1,0.00,,,0.00,WUHU216HW,2013-04-17 11:04:00,
2013-04-17 07:09:00,61.4,4.4,30.23,North,0,0.0,0.0,1,0.00,,,0.00,WUHU216HW,2013-04-17 11:09:00,
2013-04-17 07:14:00,61.6,4.5,30.23,North,0,0.0,0.0,1,0.00,,,0.00,WUHU216HW,2013-04-17 11:14:00,
2013-04-17 07:19:00,61.7,4.7,30.23,North,0,0.0,0.0,1,0.00,,,0.00,WUHU216HW,2013-04-17 11:19:00,
2013-04-17 07:24:00,61.9,4.9,30.24,North,0,0.0,0.0,1,0.00,,,0.00,WUHU216HW,2013-04-17 11:24:00,
2013-04-17 07:29:00,61.9,4.9,30.24,North,0,0.0,0.0,1,0.00,,,0.00,WUHU216HW,2013-04-17 11:29:00,
2013-04-17 07:34:00,62.3,5.1,30.24,North,0,0.0,0.0,1,0.00,,,0.00,WUHU216HW,2013-04-17 11:34:00,
2013-04-17 07:39:00,62.5,5.2,30.24,North,0,0.0,0.0,1,0.00,,,0.00,WUHU216HW,2013-04-17 11:39:00,
2013-04-17 07:44:00,62.8,5.5,30.24,North,0,0.0,0.0,1,0.00,,,0.00,WUHU216HW,2013-04-17 11:44:00,
2013-04-17 07:49:00,63.2,5.8,30.24,North,0,0.0,0.0,1,0.00,,,0.00,WUHU216HW,2013-04-17 11:49:00,
2013-04-17 07:54:00,63.4,6.0,30.24,North,0,0.0,0.0,1,0.00,,,0.00,WUHU216HW,2013-04-17 11:54:00,
2013-04-17 08:00:00,63.9,6.3,30.24,North,0,0.0,0.0,1,0.00,,,0.00,WUHU216HW,2013-04-17 12:00:00,
2013-04-17 08:05:00,64.1,6.4,30.25,North,0,0.0,0.0,1,0.00,,,0.00,WUHU216HW,2013-04-17 12:05:00,
2013-04-17 08:10:00,64.6,6.9,30.25,North,0,0.0,0.0,1,0.00,,,0.00,WUHU216HW,2013-04-17 12:10:00,
2013-04-17 08:15:00,65.0,7.1,30.25,North,0,0.0,0.0,1,0.00,,,0.00,WUHU216HW,2013-04-17 12:15:00,
2013-04-17 08:20:00,65.3,7.4,30.25,North,0,0.0,0.0,1,0.00,,,0.00,WUHU216HW,2013-04-17 12:20:00,
2013-04-17 08:25:00,65.9,7.8,30.25,North,0,0.0,0.0,1,0.00,,,0.00,WUHU216HW,2013-04-17 12:25:00,
2013-04-17 08:30:00,66.2,8.1,30.25,North,0,0.0,0.0,1,0.00,,,0.00,WUHU216HW,2013-04-17 12:30:00,
2013-04-17 08:35:00,66.6,8.4,30.25,North,0,0.0,0.0,1,0.00,,,0.00,WUHU216HW,2013-04-17 12:35:00,
2013-04-17 08:40:00,68.4,9.8,30.25,North,0,0.0,0.0,1,0.00,,,0.00,WUHU216HW,2013-04-17 12:40:00,
2013-04-17 08:45:00,70.0,11.0,30.25,North,0,0.0,0.0,1,0.00,,,0.00,WUHU216HW,2013-04-17 12:45:00,
2013-04-17 08:50:00,70.7,11.5,30.25,North,0,0.0,0.0,1,0.01,,,0.01,WUHU216HW,2013-04-17 12:50:00,
2013-04-17 08:55:00,70.7,11.5,30.25,North,0,0.0,0.0,1,0.01,,,0.01,WUHU216HW,2013-04-17 12:55:00,
2013-04-17 09:00:00,70.7,11.5,30.25,North,0,0.0,0.0,1,0.01,,,0.01,WUHU216HW,2013-04-17 13:00:00,
2013-04-17 09:06:00,70.7,11.5,30.25,North,0,0.0,0.0,3,0.01,,,0.01,WUHU216HW,2013-04-17 13:06:00,
2013-04-17 09:11:00,71.1,11.8,30.25,North,0,0.0,0.0,2,0.01,,,0.01,WUHU216HW,2013-04-17 13:11:00,
2013-04-17 09:16:00,70.9,11.7,30.25,North,0,0.0,0.0,6,0.01,,,0.01,WUHU216HW,2013-04-17 13:16:00,
2013-04-17 09:21:00,71.3,12.0,30.24,North,0,0.0,0.0,3,0.01,,,0.01,WUHU216HW,2013-04-17 13:21:00,
2013-04-17 09:26:00,71.6,12.2,30.24,North,0,0.0,0.0,3,0.01,,,0.01,WUHU216HW,2013-04-17 13:26:00,
2013-04-17 09:31:00,71.8,12.4,30.24,North,0,0.0,0.0,5,0.01,,,0.01,WUHU216HW,2013-04-17 13:31:00,
2013-04-17 09:36:00,72.0,12.5,30.24,North,0,0.0,0.0,5,0.01,,,0.01,WUHU216HW,2013-04-17 13:36:00,
2013-04-17 09:41:00,72.0,12.5,30.24,North,0,0.0,0.0,5,0.01,,,0.01,WUHU216HW,2013-04-17 13:41:00,
2013-04-17 09:46:00,71.8,12.4,30.24,North,0,0.0,0.0,5,0.00,,,0.01,WUHU216HW,2013-04-17 13:46:00,
2013-04-17 09:51:00,72.0,12.5,30.24,North,0,0.0,0.0,2,0.00,,,0.01,WUHU216HW,2013-04-17 13:51:00,
2013-04-17 09:56:00,72.7,13.2,30.24,North,0,0.0,0.0,2,0.00,,,0.01,WUHU216HW,2013-04-17 13:56:00,
2013-04-17 10:01:00,72.7,13.2,30.24,North,0,0.0,0.0,3,0.00,,,0.01,WUHU216HW,2013-04-17 14:01:00,
2013-04-17 10:07:00,73.1,13.4,30.24,North,0,0.0,0.0,3,0.00,,,0.01,WUHU216HW,2013-04-17 14:07:00,
2013-04-17 10:12:00,72.9,13.2,30.24,North,0,0.0,0.0,6,0.00,,,0.01,WUHU216HW,2013-04-17 14:12:00,
2013-04-17 10:17:00,73.3,13.5,30.24,North,0,0.0,0.0,5,0.00,,,0.01,WUHU216HW,2013-04-17 14:17:00,
2013-04-17 10:22:00,73.6,13.8,30.24,North,0,0.0,0.0,6,0.00,,,0.01,WUHU216HW,2013-04-17 14:22:00,
2013-04-17 10:27:00,73.6,13.8,30.24,North,0,0.0,0.0,9,0.00,,,0.01,WUHU216HW,2013-04-17 14:27:00,
2013-04-17 10:32:00,73.4,16.9,30.24,North,0,0.0,0.0,12,0.00,,,0.01,WUHU216HW,2013-04-17 14:32:00,
2013-04-17 10:37:00,73.3,13.5,30.24,North,0,0.0,0.0,10,0.00,,,0.01,WUHU216HW,2013-04-17 14:37:00,
2013-04-17 10:42:00,73.1,13.4,30.24,North,0,0.0,0.0,10,0.00,,,0.01,WUHU216HW,2013-04-17 14:42:00,
2013-04-17 10:47:00,73.4,13.7,30.24,North,0,0.0,0.0,8,0.00,,,0.01,WUHU216HW,2013-04-17 14:47:00,
2013-04-17 10:52:00,74.0,14.0,30.24,North,0,0.0,0.0,6,0.00,,,0.01,WUHU216HW,2013-04-17 14:52:00,
2013-04-17 10:57:00,74.0,14.0,30.24,North,0,0.0,0.0,8,0.00,,,0.01,WUHU216HW,2013-04-17 14:57:00,
2013-04-17 11:02:00,74.3,14.3,30.24,North,0,0.0,0.0,7,0.00,,,0.01,WUHU216HW,2013-04-17 15:02:00,
2013-04-17 11:07:00,74.9,14.7,30.24,North,0,0.0,0.0,7,0.00,,,0.01,WUHU216HW,2013-04-17 15:07:00,
2013-04-17 11:12:00,75.2,14.9,30.24,North,0,0.0,0.0,8,0.00,,,0.01,WUHU216HW,2013-04-17 15:12:00,
2013-04-17 11:17:00,75.2,14.9,30.24,North,0,0.0,0.0,7,0.00,,,0.01,WUHU216HW,2013-04-17 15:17:00,
2013-04-17 11:22:00,76.0,15.5,30.24,North,0,0.0,0.0,7,0.00,,,0.01,WUHU216HW,2013-04-17 15:22:00,
2013-04-17 11:28:00,76.3,15.9,30.23,North,0,0.0,0.0,7,0.00,,,0.01,WUHU216HW,2013-04-17 15:28:00,
2013-04-17 11:33:00,76.5,15.9,30.23,North,0,0.0,0.0,8,0.00,,,0.01,WUHU216HW,2013-04-17 15:33:00,
2013-04-17 11:38:00,76.7,16.1,30.23,North,0,0.0,0.0,8,0.00,,,0.01,WUHU216HW,2013-04-17 15:38:00,
2013-04-17 11:43:00,76.9,16.2,30.23,North,0,0.0,0.0,10,0.00,,,0.01,WUHU216HW,2013-04-17 15:43:00,
2013-04-17 11:48:00,76.9,16.2,30.23,North,0,0.0,0.0,10,0.00,,,0.01,WUHU216HW,2013-04-17 15:48:00,
2013-04-17 11:53:00,77.4,16.7,30.23,North,0,0.0,0.0,10,0.00,,,0.01,WUHU216HW,2013-04-17 15:53:00,
2013-04-17 11:58:00,77.8,16.9,30.23,North,0,0.0,0.0,10,0.00,,,0.01,WUHU216HW,2013-04-17 15:58:00,
2013-04-17 12:03:00,78.1,17.1,30.23,North,0,0.0,0.0,10,0.00,,,0.01,WUHU216HW,2013-04-17 16:03:00,
2013-04-17 12:08:00,78.1,18.8,30.23,North,0,0.0,0.0,11,0.00,,,0.01,WUHU216HW,2013-04-17 16:08:00,
2013-04-17 12:13:00,78.3,18.9,30.23,North,0,0.0,0.0,11,0.00,,,0.01,WUHU216HW,2013-04-17 16:13:00,
2013-04-17 12:18:00,78.3,18.9,30.23,North,0,0.0,0.0,11,0.00,,,0.01,WUHU216HW,2013-04-17 16:18:00,
2013-04-17 12:23:00,78.7,19.2,30.23,North,0,0.0,0.0,11,0.00,,,0.01,WUHU216HW,2013-04-17 16:23:00,
2013-04-17 12:28:00,78.7,20.9,30.22,North,0,0.0,0.0,12,0.00,,,0.01,WUHU216HW,2013-04-17 16:28:00,
2013-04-17 12:33:00,79.0,21.2,30.22,North,0,0.0,0.0,12,0.00,,,0.01,WUHU216HW,2013-04-17 16:33:00,
2013-04-17 12:38:00,78.8,22.7,30.22,North,0,0.0,0.0,13,0.00,,,0.01,WUHU216HW,2013-04-17 16:38:00,
2013-04-17 12:43:00,78.5,22.4,30.22,North,0,0.0,0.0,13,0.00,,,0.01,WUHU216HW,2013-04-17 16:43:00,
2013-04-17 12:48:00,78.5,22.4,30.22,North,0,0.0,0.0,13,0.00,,,0.01,WUHU216HW,2013-04-17 16:48:00,
2013-04-17 12:54:00,78.7,22.5,30.22,North,0,0.0,0.0,13,0.00,,,0.01,WUHU216HW,2013-04-17 16:54:00,
2013-04-17 12:59:00,78.5,22.4,30.21,North,0,0.0,0.0,13,0.00,,,0.01,WUHU216HW,2013-04-17 16:59:00,
2013-04-17 13:04:00,78.5,20.7,30.21,North,0,0.0,0.0,12,0.00,,,0.01,WUHU216HW,2013-04-17 17:04:00,
2013-04-17 13:09:00,78.5,22.4,30.21,North,0,0.0,0.0,13,0.00,,,0.01,WUHU216HW,2013-04-17 17:09:00,
2013-04-17 13:14:00,78.7,20.9,30.22,North,0,0.0,0.0,12,0.00,,,0.01,WUHU216HW,2013-04-17 17:14:00,
2013-04-17 13:19:00,78.7,20.9,30.21,North,0,0.0,0.0,12,0.00,,,0.01,WUHU216HW,2013-04-17 17:19:00,
2013-04-17 13:24:00,79.0,19.4,30.21,North,0,0.0,0.0,11,0.00,,,0.01,WUHU216HW,2013-04-17 17:24:00,
2013-04-17 13:29:00,79.4,21.4,30.21,North,0,0.0,0.0,12,0.00,,,0.01,WUHU216HW,2013-04-17 17:29:00,
2013-04-17 13:34:00,79.6,21.6,30.21,North,0,0.0,0.0,12,0.00,,,0.01,WUHU216HW,2013-04-17 17:34:00,
2013-04-17 13:39:00,79.9,23.6,30.20,North,0,0.0,0.0,13,0.00,,,0.01,WUHU216HW,2013-04-17 17:39:00,
2013-04-17 13:44:00,80.3,23.9,30.20,North,0,0.0,0.0,13,0.00,,,0.01,WUHU216HW,2013-04-17 17:44:00,
2013-04-17 13:49:00,80.5,27.4,30.20,North,0,0.0,0.0,15,0.00,,,0.01,WUHU216HW,2013-04-17 17:49:00,
2013-04-17 13:54:00,80.6,32.6,30.20,North,0,0.0,0.0,18,0.00,,,0.01,WUHU216HW,2013-04-17 17:54:00,
2013-04-17 13:59:00,80.6,29.3,30.20,North,0,0.0,0.0,16,0.00,,,0.01,WUHU216HW,2013-04-17 17:59:00,
2013-04-17 14:04:00,80.6,34.3,30.20,North,0,0.0,0.0,19,0.00,,,0.01,WUHU216HW,2013-04-17 18:04:00,
2013-04-17 14:09:00,80.5,32.5,30.20,North,0,0.0,0.0,18,0.00,,,0.01,WUHU216HW,2013-04-17 18:09:00,
2013-04-17 14:14:00,80.6,34.3,30.20,North,0,0.0,0.0,19,0.00,,,0.01,WUHU216HW,2013-04-17 18:14:00,
2013-04-17 14:20:00,80.6,34.3,30.20,North,0,0.0,0.0,19,0.00,,,0.01,WUHU216HW,2013-04-17 18:20:00,
2013-04-17 14:25:00,80.8,29.3,30.20,North,0,0.0,0.0,16,0.00,,,0.01,WUHU216HW,2013-04-17 18:25:00,
2013-04-17 14:30:00,81.7,28.5,30.20,North,0,0.0,0.0,15,0.00,,,0.01,WUHU216HW,2013-04-17 18:30:00,
2013-04-17 14:35:00,81.7,35.2,30.20,North,0,0.0,0.0,19,0.00,,,0.01,WUHU216HW,2013-04-17 18:35:00,
2013-04-17 14:40:00,81.7,33.5,30.19,North,0,0.0,0.0,18,0.00,,,0.01,WUHU216HW,2013-04-17 18:40:00,
2013-04-17 14:45:00,81.7,31.8,30.19,North,0,0.0,0.0,17,0.00,,,0.01,WUHU216HW,2013-04-17 18:45:00,
2013-04-17 14:50:00,81.9,33.7,30.19,North,0,0.0,0.0,18,0.00,,,0.01,WUHU216HW,2013-04-17 18:50:00,
2013-04-17 14:55:00,82.3,32.2,30.19,North,0,0.0,0.0,17,0.00,,,0.01,WUHU216HW,2013-04-17 18:55:00,
2013-04-17 15:00:00,82.8,31.0,30.19,North,0,0.0,0.0,16,0.00,,,0.01,WUHU216HW,2013-04-17 19:00:00,
2013-04-17 15:05:00,83.5,31.5,30.19,North,0,0.0,0.0,16,0.00,,,0.01,WUHU216HW,2013-04-17 19:05:00,
2013-04-17 15:10:00,83.9,39.7,30.19,North,0,0.0,0.0,21,0.00,,,0.01,WUHU216HW,2013-04-17 19:10:00,
2013-04-17 15:15:00,84.1,37.0,30.19,North,0,0.0,0.0,19,0.00,,,0.01,WUHU216HW,2013-04-17 19:15:00,
2013-04-17 15:20:00,84.4,37.4,30.18,North,0,0.0,0.0,19,0.00,,,0.01,WUHU216HW,2013-04-17 19:20:00,
2013-04-17 15:25:00,84.6,41.3,30.18,North,0,0.0,0.0,22,0.00,,,0.01,WUHU216HW,2013-04-17 19:25:00,
2013-04-17 15:30:00,85.0,41.6,30.18,North,0,0.0,0.0,22,0.00,,,0.01,WUHU216HW,2013-04-17 19:30:00,
2013-04-17 15:36:00,85.0,43.8,30.18,North,0,0.0,0.0,24,0.00,,,0.01,WUHU216HW,2013-04-17 19:36:00,
2013-04-17 15:41:00,85.0,44.8,30.18,North,0,0.0,0.0,25,0.00,,,0.01,WUHU216HW,2013-04-17 19:41:00,
2013-04-17 15:46:00,84.8,43.6,30.18,North,0,0.0,0.0,24,0.00,,,0.01,WUHU216HW,2013-04-17 19:46:00,
2013-04-17 15:51:00,85.0,42.7,30.18,North,0,0.0,0.0,23,0.00,,,0.01,WUHU216HW,2013-04-17 19:51:00,
2013-04-17 15:56:00,85.3,45.1,30.18,North,0,0.0,0.0,25,0.00,,,0.01,WUHU216HW,2013-04-17 19:56:00,
2013-04-17 16:01:00,85.0,50.9,30.17,North,0,0.0,0.0,31,0.00,,,0.01,WUHU216HW,2013-04-17 20:01:00,
2013-04-17 16:06:00,84.1,47.3,30.17,North,0,0.0,0.0,28,0.00,,,0.01,WUHU216HW,2013-04-17 20:06:00,
2013-04-17 16:11:00,83.7,46.9,30.17,North,0,0.0,0.0,28,0.00,,,0.01,WUHU216HW,2013-04-17 20:11:00,
2013-04-17 16:16:00,83.3,43.5,30.17,North,0,0.0,0.0,25,0.00,,,0.01,WUHU216HW,2013-04-17 20:16:00,
2013-04-17 16:21:00,83.2,43.3,30.17,North,0,0.0,0.0,25,0.00,,,0.01,WUHU216HW,2013-04-17 20:21:00,
2013-04-17 16:26:00,83.2,41.1,30.17,North,0,0.0,0.0,23,0.00,,,0.01,WUHU216HW,2013-04-17 20:26:00,
2013-04-17 16:32:00,83.5,40.4,30.16,North,0,0.0,0.0,22,0.00,,,0.01,WUHU216HW,2013-04-17 20:32:00,
2013-04-17 16:37:00,84.2,41.1,30.16,North,0,0.0,0.0,22,0.00,,,0.01,WUHU216HW,2013-04-17 20:37:00,
2013-04-17 16:42:00,84.6,42.4,30.17,North,0,0.0,0.0,23,0.00,,,0.01,WUHU216HW,2013-04-17 20:42:00,
2013-04-17 16:47:00,83.9,49.1,30.16,North,0,0.0,0.0,30,0.00,,,0.01,WUHU216HW,2013-04-17 20:47:00,
2013-04-17 16:52:00,83.0,44.2,30.16,North,0,0.0,0.0,26,0.00,,,0.01,WUHU216HW,2013-04-17 20:52:00,
2013-04-17 16:57:00,82.1,40.3,30.16,North,0,0.0,0.0,23,0.00,,,0.01,WUHU216HW,2013-04-17 20:57:00,
2013-04-17 17:02:00,82.1,37.2,30.15,North,0,0.0,0.0,20,0.00,,,0.01,WUHU216HW,2013-04-17 21:02:00,
2013-04-17 17:07:00,82.3,35.7,30.16,North,0,0.0,0.0,19,0.00,,,0.01,WUHU216HW,2013-04-17 21:07:00,
2013-04-17 17:12:00,83.3,34.7,30.16,North,0,0.0,0.0,18,0.00,,,0.01,WUHU216HW,2013-04-17 21:12:00,
2013-04-17 17:17:00,83.9,35.2,30.17,North,0,0.0,0.0,18,0.00,,,0.01,WUHU216HW,2013-04-17 21:17:00,
2013-04-17 17:22:00,84.1,37.0,30.17,North,0,0.0,0.0,19,0.00,,,0.01,WUHU216HW,2013-04-17 21:22:00,
2013-04-17 17:27:00,84.4,42.2,30.17,North,0,0.0,0.0,23,0.00,,,0.01,WUHU216HW,2013-04-17 21:27:00,
2013-04-17 17:32:00,84.6,42.4,30.17,North,0,0.0,0.0,23,0.00,,,0.01,WUHU216HW,2013-04-17 21:32:00,
2013-04-17 17:37:00,84.4,43.3,30.18,North,0,0.0,0.0,24,0.00,,,0.01,WUHU216HW,2013-04-17 21:37:00,
2013-04-17 17:43:00,84.1,44.0,30.18,North,0,0.0,0.0,25,0.00,,,0.01,WUHU216HW,2013-04-17 21:43:00,
2013-04-17 17:48:00,83.7,44.8,30.18,North,0,0.0,0.0,26,0.00,,,0.01,WUHU216HW,2013-04-17 21:48:00,
2013-04-17 17:53:00,82.1,42.4,30.18,North,0,0.0,0.0,25,0.00,,,0.01,WUHU216HW,2013-04-17 21:53:00,
2013-04-17 17:58:00,80.8,38.3,30.18,North,0,0.0,0.0,22,0.00,,,0.01,WUHU216HW,2013-04-17 21:58:00,
2013-04-17 18:03:00,79.9,32.0,30.17,North,0,0.0,0.0,18,0.00,,,0.01,WUHU216HW,2013-04-17 22:03:00,
2013-04-17 18:08:00,79.2,26.3,30.17,North,0,0.0,0.0,15,0.00,,,0.01,WUHU216HW,2013-04-17 22:08:00,
2013-04-17 18:13:00,78.7,22.5,30.17,North,0,0.0,0.0,13,0.00,,,0.01,WUHU216HW,2013-04-17 22:13:00,
2013-04-17 18:18:00,78.5,20.7,30.17,North,0,0.0,0.0,12,0.00,,,0.01,WUHU216HW,2013-04-17 22:18:00,
2013-04-17 18:23:00,77.9,18.7,30.17,North,0,0.0,0.0,11,0.00,,,0.01,WUHU216HW,2013-04-17 22:23:00,
2013-04-17 18:28:00,77.4,16.7,30.17,North,0,0.0,0.0,10,0.00,,,0.01,WUHU216HW,2013-04-17 22:28:00,
2013-04-17 18:33:00,77.0,16.4,30.17,North,0,0.0,0.0,8,0.00,,,0.01,WUHU216HW,2013-04-17 22:33:00,
2013-04-17 18:38:00,76.7,16.1,30.17,North,0,0.0,0.0,8,0.00,,,0.01,WUHU216HW,2013-04-17 22:38:00,
2013-04-17 18:43:00,76.3,15.9,30.17,North,0,0.0,0.0,7,0.00,,,0.01,WUHU216HW,2013-04-17 22:43:00,
2013-04-17 18:48:00,76.0,15.5,30.17,North,0,0.0,0.0,6,0.00,,,0.01,WUHU216HW,2013-04-17 22:48:00,
2013-04-17 18:54:00,76.0,15.5,30.17,North,0,0.0,0.0,6,0.00,,,0.01,WUHU216HW,2013-04-17 22:54:00,
2013-04-17 18:59:00,75.4,15.1,30.17,North,0,0.0,0.0,6,0.00,,,0.01,WUHU216HW,2013-04-17 22:59:00,
2013-04-17 19:04:00,74.5,14.4,30.17,North,0,0.0,0.0,6,0.00,,,0.01,WUHU216HW,2013-04-17 23:04:00,
2013-04-17 19:09:00,73.8,14.0,30.17,North,0,0.0,0.0,5,0.00,,,0.01,WUHU216HW,2013-04-17 23:09:00,
2013-04-17 19:14:00,73.3,13.5,30.17,North,0,0.0,0.0,5,0.00,,,0.01,WUHU216HW,2013-04-17 23:14:00,
2013-04-17 19:19:00,73.1,13.4,30.17,North,0,0.0,0.0,5,0.00,,,0.01,WUHU216HW,2013-04-17 23:19:00,
2013-04-17 19:24:00,72.7,13.2,30.17,North,0,0.0,0.0,3,0.00,,,0.01,WUHU216HW,2013-04-17 23:24:00,
2013-04-17 19:29:00,72.4,12.8,30.17,North,0,0.0,0.0,3,0.00,,,0.01,WUHU216HW,2013-04-17 23:29:00,
2013-04-17 19:34:00,72.2,12.7,30.17,North,0,0.0,0.0,2,0.00,,,0.01,WUHU216HW,2013-04-17 23:34:00,
2013-04-17 19:39:00,71.8,12.4,30.17,North,0,0.0,0.0,2,0.00,,,0.01,WUHU216HW,2013-04-17 23:39:00,
2013-04-17 19:44:00,71.5,12.1,30.17,North,0,0.0,0.0,2,0.00,,,0.01,WUHU216HW,2013-04-17 23:44:00,
2013-04-17 19:49:00,71.1,11.8,30.17,North,0,0.0,0.0,1,0.00,,,0.01,WUHU216HW,2013-04-17 23:49:00,
2013-04-17 19:54:00,70.7,11.5,30.17,North,0,0.0,0.0,1,0.00,,,0.01,WUHU216HW,2013-04-17 23:54:00,
2013-04-17 19:59:00,70.4,11.3,30.17,North,0,0.0,0.0,1,0.00,,,0.01,WUHU216HW,2013-04-17 23:59:00,
2013-04-17 20:04:00,70.2,11.1,30.18,North,0,0.0,0.0,1,0.00,,,0.01,WUHU216HW,2013-04-18 00:04:00,
2013-04-17 20:10:00,70.0,11.0,30.18,North,0,0.0,0.0,1,0.00,,,0.01,WUHU216HW,2013-04-18 00:10:00,
2013-04-17 20:15:00,69.7,10.7,30.18,North,0,0.0,0.0,1,0.00,,,0.01,WUHU216HW,2013-04-18 00:15:00,
2013-04-17 20:20:00,69.5,10.5,30.18,North,0,0.0,0.0,1,0.00,,,0.01,WUHU216HW,2013-04-18 00:20:00,
2013-04-17 20:25:00,69.3,10.5,30.19,North,0,0.0,0.0,1,0.00,,,0.01,WUHU216HW,2013-04-18 00:25:00,
2013-04-17 20:30:00,69.1,10.3,30.19,North,0,0.0,0.0,1,0.00,,,0.01,WUHU216HW,2013-04-18 00:30:00,
2013-04-17 20:35:00,69.1,10.3,30.19,North,0,0.0,0.0,1,0.00,,,0.01,WUHU216HW,2013-04-18 00:35:00,
2013-04-17 20:40:00,68.9,10.2,30.19,North,0,0.0,0.0,1,0.00,,,0.01,WUHU216HW,2013-04-18 00:40:00,
2013-04-17 20:45:00,68.9,10.2,30.19,North,0,0.0,0.0,1,0.00,,,0.01,WUHU216HW,2013-04-18 00:45:00,
2013-04-17 20:50:00,68.9,10.2,30.19,North,0,0.0,0.0,1,0.00,,,0.01,WUHU216HW,2013-04-18 00:50:00,
2013-04-17 20:55:00,68.8,10.1,30.19,North,0,0.0,0.0,1,0.00,,,0.01,WUHU216HW,2013-04-18 00:55:00,
2013-04-17 21:00:00,68.8,10.1,30.19,North,0,0.0,0.0,1,0.00,,,0.01,WUHU216HW,2013-04-18 01:00:00,
2013-04-17 21:05:00,68.6,9.9,30.19,North,0,0.0,0.0,1,0.00,,,0.01,WUHU216HW,2013-04-18 01:05:00,
2013-04-17 21:10:00,68.6,9.9,30.19,North,0,0.0,0.0,1,0.00,,,0.01,WUHU216HW,2013-04-18 01:10:00,
2013-04-17 21:15:00,68.4,9.8,30.19,North,0,0.0,0.0,1,0.00,,,0.01,WUHU216HW,2013-04-18 01:15:00,
2013-04-17 21:20:00,68.4,9.8,30.18,North,0,0.0,0.0,1,0.00,,,0.01,WUHU216HW,2013-04-18 01:20:00,
2013-04-17 21:25:00,68.2,9.6,30.18,North,0,0.0,0.0,1,0.00,,,0.01,WUHU216HW,2013-04-18 01:25:00,
2013-04-17 21:31:00,68.0,9.5,30.19,North,0,0.0,0.0,1,0.00,,,0.01,WUHU216HW,2013-04-18 01:31:00,
2013-04-17 21:36:00,67.9,9.4,30.18,North,0,0.0,0.0,1,0.00,,,0.01,WUHU216HW,2013-04-18 01:36:00,
2013-04-17 21:41:00,67.7,9.3,30.18,North,0,0.0,0.0,1,0.00,,,0.01,WUHU216HW,2013-04-18 01:41:00,
2013-04-17 21:46:00,67.5,9.1,30.18,North,0,0.0,0.0,1,0.00,,,0.01,WUHU216HW,2013-04-18 01:46:00,
2013-04-17 21:51:00,67.3,9.0,30.19,North,0,0.0,0.0,1,0.00,,,0.01,WUHU216HW,2013-04-18 01:51:00,
2013-04-17 21:56:00,67.1,8.8,30.19,North,0,0.0,0.0,1,0.00,,,0.01,WUHU216HW,2013-04-18 01:56:00,
2013-04-17 22:01:00,66.8,8.6,30.19,North,0,0.0,0.0,1,0.00,,,0.01,WUHU216HW,2013-04-18 02:01:00,
2013-04-17 22:06:00,66.6,8.4,30.19,North,0,0.0,0.0,1,0.00,,,0.01,WUHU216HW,2013-04-18 02:06:00,
2013-04-17 22:11:00,66.6,8.4,30.19,North,0,0.0,0.0,1,0.00,,,0.01,WUHU216HW,2013-04-18 02:11:00,
2013-04-17 22:16:00,66.2,8.1,30.19,North,0,0.0,0.0,1,0.00,,,0.01,WUHU216HW,2013-04-18 02:16:00,
2013-04-17 22:21:00,66.2,8.1,30.19,North,0,0.0,0.0,1,0.00,,,0.01,WUHU216HW,2013-04-18 02:21:00,
2013-04-17 22:26:00,66.1,7.9,30.19,North,0,0.0,0.0,1,0.00,,,0.01,WUHU216HW,2013-04-18 02:26:00,
2013-04-17 22:31:00,66.1,7.9,30.20,North,0,0.0,0.0,1,0.00,,,0.01,WUHU216HW,2013-04-18 02:31:00,
2013-04-17 22:36:00,66.2,8.1,30.19,North,0,0.0,0.0,1,0.00,,,0.01,WUHU216HW,2013-04-18 02:36:00,
2013-04-17 22:41:00,66.2,8.1,30.19,North,0,0.0,0.0,1,0.00,,,0.01,WUHU216HW,2013-04-18 02:41:00,
2013-04-17 22:46:00,66.4,8.3,30.19,North,0,0.0,0.0,1,0.00,,,0.01,WUHU216HW,2013-04-18 02:46:00,
2013-04-17 22:52:00,66.2,8.1,30.19,North,0,0.0,0.0,1,0.00,,,0.01,WUHU216HW,2013-04-18 02:52:00,
2013-04-17 22:57:00,65.9,7.8,30.19,North,0,0.0,0.0,1,0.00,,,0.01,WUHU216HW,2013-04-18 02:57:00,
2013-04-17 23:02:00,65.9,7.8,30.19,North,0,0.0,0.0,1,0.00,,,0.01,WUHU216HW,2013-04-18 03:02:00,
2013-04-17 23:07:00,66.1,7.9,30.19,North,0,0.0,0.0,1,0.00,,,0.01,WUHU216HW,2013-04-18 03:07:00,
2013-04-17 23:12:00,65.9,7.8,30.19,North,0,0.0,0.0,1,0.00,,,0.01,WUHU216HW,2013-04-18 03:12:00,
2013-04-17 23:17:00,65.9,7.8,30.19,North,0,0.0,0.0,1,0.00,,,0.01,WUHU216HW,2013-04-18 03:17:00,
2013-04-17 23:22:00,65.9,7.8,30.19,North,0,0.0,0.0,1,0.00,,,0.01,WUHU216HW,2013-04-18 03:22:00,
2013-04-17 23:27:00,65.7,7.7,30.19,North,0,0.0,0.0,1,0.00,,,0.01,WUHU216HW,2013-04-18 03:27:00,
2013-04-17 23:32:00,65.7,7.7,30.19,North,0,0.0,0.0,1,0.00,,,0.01,WUHU216HW,2013-04-18 03:32:00,
2013-04-17 23:37:00,65.7,7.7,30.19,North,0,0.0,0.0,1,0.00,,,0.01,WUHU216HW,2013-04-18 03:37:00,
2013-04-17 23:42:00,65.5,7.6,30.19,North,0,0.0,0.0,1,0.00,,,0.01,WUHU216HW,2013-04-18 03:42:00,
2013-04-17 23:48:00,65.7,7.7,30.19,North,0,0.0,0.0,1,0.00,,,0.01,WUHU216HW,2013-04-18 03:48:00,
2013-04-17 23:53:00,65.9,7.8,30.19,North,0,0.0,0.0,1,0.00,,,0.01,WUHU216HW,2013-04-18 03:53:00,
2013-04-17 23:58:00,66.1,7.9,30.19,North,0,0.0,0.0,1,0.00,,,0.01,WUHU216HW,2013-04-18 03:58:00,